WESTPORT MEDIA Westport In The Media

Enter your "Place, State", US Zip Code or ICAO:  

Vc Bird International Airport Antigua, Antigua And Barbuda

 Lat: 17.12N, Lon: 61.78W
ICAO Used: TAPA
Current Conditions
Updated: 1:00 AM GMT-4 FRI NOV 28 2014
Sun & Moon Information
Mostly Clear
Mostly Clear
Temp: 24°C
Humidity: 88%
Wind Speed: VRB2 MPH
Barometer: 1014 mb
Dewpoint: 22°C
Heat Index: 24°C
Wind Chill: 24°C
Civil Twilight: 5:54 AM GMT-4 Moon Phase:
First Quarter Moon
Sunrise: 6:17 AM GMT-4
Sunset: 5:30 PM GMT-4
Civil Twilight: 5:53 PM GMT-4
Forecast for Vc Bird International Airport Antigua, Antigua And Barbuda:
(Forecast based on TAF for )
0800 PM GMT-4 THU NOV 27 2014
  
MORNING AFTERNOON EVENING OVERNIGHT
Fair Fair Fair Fair
ZoneCast:
Dated: 0800 PM GMT-4 THU NOV 27 2014
Morning...Becoming fair with winds from the eastsoutheast at 9 mph.

Afternoon...Fair with winds from the eastsoutheast at 9 mph.

Evening...Fair with winds from the eastsoutheast at 9 mph.

Overnight...Fair with winds from the eastsoutheast at 9 mph.

Original Encoded TAF:
Dated: 0800 PM GMT-4 THU NOV 27 2014
TAF TAPA 280200Z 2806/2906 VRB02KT 9999 FEW019 
     PROB40 
     TEMPO 2806/2820 SHRA BKN015 
     BECMG 2812/2814 11008KT